createdAt,value
2023-04-06T00:00:03.950Z,998.63
2023-04-06T00:01:03.946Z,998.58
2023-04-06T00:02:03.980Z,998.61
2023-04-06T00:03:04.016Z,998.54
2023-04-06T00:04:03.946Z,998.60
2023-04-06T00:05:03.927Z,998.53
2023-04-06T00:06:03.928Z,998.60
2023-04-06T00:07:03.951Z,998.56
2023-04-06T00:08:03.899Z,998.51
2023-04-06T00:09:03.880Z,998.55
2023-04-06T00:10:03.884Z,998.53
2023-04-06T00:11:03.911Z,998.55
2023-04-06T00:12:03.915Z,998.52
2023-04-06T00:13:03.862Z,998.56
2023-04-06T00:14:03.854Z,998.54
2023-04-06T00:15:03.852Z,998.55
2023-04-06T00:16:03.878Z,998.55
2023-04-06T00:17:03.929Z,998.52
2023-04-06T00:18:03.884Z,998.49
2023-04-06T00:19:03.824Z,998.44
2023-04-06T00:20:03.808Z,998.49
2023-04-06T00:21:03.796Z,998.41
2023-04-06T00:22:03.857Z,998.49
2023-04-06T00:23:03.786Z,998.53
2023-04-06T00:24:03.777Z,998.53
2023-04-06T00:25:03.767Z,998.52
2023-04-06T00:26:04.762Z,998.49
2023-04-06T00:27:03.784Z,998.43
2023-04-06T00:28:03.755Z,998.49
2023-04-06T00:29:03.764Z,998.49
2023-04-06T00:30:03.756Z,998.49
2023-04-06T00:31:03.738Z,998.48
2023-04-06T00:32:03.790Z,998.38
2023-04-06T00:33:03.848Z,998.41
2023-04-06T00:34:03.716Z,998.48
2023-04-06T00:35:03.709Z,998.45
2023-04-06T00:36:03.715Z,998.37
2023-04-06T00:37:03.718Z,998.39
2023-04-06T00:38:03.705Z,998.38
2023-04-06T00:39:03.671Z,998.46
2023-04-06T00:40:03.677Z,998.42
2023-04-06T00:41:03.659Z,998.46
2023-04-06T00:42:03.670Z,998.35
2023-04-06T00:43:04.646Z,998.43
2023-04-06T00:44:03.638Z,998.35
2023-04-06T00:45:03.637Z,998.41
2023-04-06T00:46:03.661Z,998.30
2023-04-06T00:47:03.644Z,998.31
2023-04-06T00:48:03.612Z,998.32
2023-04-06T00:49:03.602Z,998.27
2023-04-06T00:50:03.590Z,998.31
2023-04-06T00:51:03.604Z,998.34
2023-04-06T00:52:03.606Z,998.31
2023-04-06T00:53:03.567Z,998.29
2023-04-06T00:54:03.569Z,998.25
2023-04-06T00:55:03.567Z,998.25
2023-04-06T00:56:03.550Z,998.33
2023-04-06T00:57:03.574Z,998.15
2023-04-06T00:58:03.535Z,998.24
2023-04-06T00:59:03.539Z,998.16
2023-04-06T01:00:03.556Z,998.16
2023-04-06T01:01:03.548Z,998.12
2023-04-06T01:02:03.534Z,998.08
2023-04-06T01:03:03.542Z,998.14
2023-04-06T01:04:03.508Z,998.21
2023-04-06T01:05:03.536Z,998.13
2023-04-06T01:06:03.480Z,998.15
2023-04-06T01:07:03.503Z,998.14
2023-04-06T01:08:03.470Z,998.11
2023-04-06T01:09:03.465Z,998.08
2023-04-06T01:10:03.480Z,998.12
2023-04-06T01:11:03.445Z,998.08
2023-04-06T01:12:03.455Z,998.14
2023-04-06T01:13:03.451Z,998.15
2023-04-06T01:14:03.423Z,998.08
2023-04-06T01:15:03.425Z,998.05
2023-04-06T01:16:03.421Z,998.02
2023-04-06T01:17:03.432Z,998.02
2023-04-06T01:18:03.482Z,998.06
2023-04-06T01:19:03.393Z,998.08
2023-04-06T01:20:03.386Z,998.07
2023-04-06T01:21:03.386Z,998.08
2023-04-06T01:22:03.402Z,998.10
2023-04-06T01:23:03.365Z,997.94
2023-04-06T01:24:03.359Z,998.08
2023-04-06T01:25:03.374Z,998.02
2023-04-06T01:26:03.341Z,998.01
2023-04-06T01:27:03.369Z,998.07
2023-04-06T01:28:03.333Z,998.06
2023-04-06T01:29:03.354Z,998.04
2023-04-06T01:30:03.341Z,997.96
2023-04-06T01:31:03.352Z,998.02
2023-04-06T01:32:03.363Z,998.01
2023-04-06T01:33:03.346Z,998.01
2023-04-06T01:34:03.298Z,998.00
2023-04-06T01:35:03.291Z,998.02
2023-04-06T01:36:03.304Z,997.98
2023-04-06T01:37:03.292Z,997.96
2023-04-06T01:38:03.339Z,997.98
2023-04-06T01:39:03.257Z,997.86
2023-04-06T01:40:03.249Z,997.91
2023-04-06T01:41:03.229Z,997.93
2023-04-06T01:42:03.250Z,997.89
2023-04-06T01:43:03.212Z,997.85
2023-04-06T01:44:03.219Z,997.90
2023-04-06T01:45:03.214Z,997.91
2023-04-06T01:46:03.213Z,997.85
2023-04-06T01:47:03.228Z,997.85
2023-04-06T01:48:03.203Z,997.86
2023-04-06T01:49:03.169Z,997.77
2023-04-06T01:50:03.176Z,997.95
2023-04-06T01:51:03.171Z,997.84
2023-04-06T01:52:03.186Z,997.93
2023-04-06T01:53:03.139Z,997.82
2023-04-06T01:54:03.135Z,997.84
2023-04-06T01:55:03.149Z,997.81
2023-04-06T01:56:03.125Z,997.84
2023-04-06T01:57:03.139Z,997.78
2023-04-06T01:58:03.101Z,997.84
2023-04-06T01:59:03.106Z,997.82
2023-04-06T02:00:03.106Z,997.73
2023-04-06T02:01:03.201Z,997.77
2023-04-06T02:02:03.166Z,997.83
2023-04-06T02:03:03.173Z,997.73
2023-04-06T02:04:03.069Z,997.76
2023-04-06T02:05:03.075Z,997.76
2023-04-06T02:06:03.045Z,997.75
2023-04-06T02:07:03.083Z,997.77
2023-04-06T02:08:03.029Z,997.86
2023-04-06T02:09:03.028Z,997.86
2023-04-06T02:10:03.018Z,997.84
2023-04-06T02:11:03.017Z,997.78
2023-04-06T02:12:03.042Z,997.90
2023-04-06T02:13:03.002Z,997.85
2023-04-06T02:14:02.996Z,997.84
2023-04-06T02:15:02.976Z,997.84
2023-04-06T02:16:03.012Z,997.84
2023-04-06T02:17:03.021Z,997.83
2023-04-06T02:18:03.014Z,997.88
2023-04-06T02:19:02.969Z,997.84
2023-04-06T02:20:02.974Z,997.87
2023-04-06T02:21:02.952Z,997.85
2023-04-06T02:22:02.933Z,997.80
2023-04-06T02:23:02.944Z,997.83
2023-04-06T02:24:02.918Z,997.79
2023-04-06T02:25:02.911Z,997.85
2023-04-06T02:26:02.901Z,997.84
2023-04-06T02:27:02.902Z,997.82
2023-04-06T02:28:02.943Z,997.78
2023-04-06T02:29:02.884Z,997.80
2023-04-06T02:30:02.891Z,997.84
2023-04-06T02:31:02.871Z,997.76
2023-04-06T02:32:02.873Z,997.76
2023-04-06T02:33:02.982Z,997.74
2023-04-06T02:34:02.848Z,997.79
2023-04-06T02:35:02.844Z,997.79
2023-04-06T02:36:02.857Z,997.81
2023-04-06T02:37:02.824Z,997.80
2023-04-06T02:38:02.843Z,997.80
2023-04-06T02:39:02.808Z,997.84
2023-04-06T02:40:02.814Z,997.84
2023-04-06T02:41:02.801Z,997.75
2023-04-06T02:42:02.786Z,997.81
2023-04-06T02:43:02.808Z,997.80
2023-04-06T02:44:02.768Z,997.82
2023-04-06T02:45:02.773Z,997.86
2023-04-06T02:46:02.872Z,997.86
2023-04-06T02:47:02.760Z,997.75
2023-04-06T02:48:02.788Z,997.86
2023-04-06T02:49:02.765Z,997.82
2023-04-06T02:50:02.735Z,997.81
2023-04-06T02:51:02.728Z,997.87
2023-04-06T02:52:02.719Z,997.86
2023-04-06T02:53:02.737Z,997.86
2023-04-06T02:54:02.710Z,997.82
2023-04-06T02:55:02.720Z,997.84
2023-04-06T02:56:02.727Z,997.91
2023-04-06T02:57:02.694Z,997.95
2023-04-06T02:58:02.718Z,997.87
2023-04-06T02:59:02.743Z,997.90
2023-04-06T03:00:02.669Z,997.92
2023-04-06T03:01:02.743Z,997.91
2023-04-06T03:02:02.655Z,997.89
2023-04-06T03:03:02.749Z,997.89
2023-04-06T03:04:02.640Z,997.88
2023-04-06T03:05:02.670Z,997.87
2023-04-06T03:06:02.622Z,997.91
2023-04-06T03:07:02.610Z,997.87
2023-04-06T03:08:02.648Z,997.91
2023-04-06T03:09:02.605Z,997.86
2023-04-06T03:10:02.641Z,997.89
2023-04-06T03:11:03.620Z,997.84
2023-04-06T03:12:02.579Z,997.80
2023-04-06T03:13:02.603Z,997.82
2023-04-06T03:14:03.570Z,997.82
2023-04-06T03:15:02.578Z,997.85
2023-04-06T03:16:02.656Z,997.86
2023-04-06T03:17:02.548Z,997.86
2023-04-06T03:18:02.599Z,997.84
2023-04-06T03:19:02.525Z,997.82
2023-04-06T03:20:02.542Z,997.87
2023-04-06T03:21:02.529Z,997.85
2023-04-06T03:22:02.524Z,997.85
2023-04-06T03:23:02.537Z,997.88
2023-04-06T03:24:02.500Z,997.88
2023-04-06T03:25:03.726Z,997.81
2023-04-06T03:26:03.474Z,997.89
2023-04-06T03:27:02.509Z,997.90
2023-04-06T03:28:02.497Z,997.83
2023-04-06T03:29:02.464Z,997.80
2023-04-06T03:30:02.440Z,997.84
2023-04-06T03:31:02.500Z,997.80
2023-04-06T03:32:02.428Z,997.78
2023-04-06T03:33:02.478Z,997.84
2023-04-06T03:34:02.430Z,997.86
2023-04-06T03:35:02.413Z,997.86
2023-04-06T03:36:02.451Z,997.85
2023-04-06T03:37:09.755Z,997.79
2023-04-06T03:38:04.417Z,997.86
2023-04-06T03:39:02.391Z,997.79
2023-04-06T03:40:02.375Z,997.81
2023-04-06T03:41:02.365Z,997.83
2023-04-06T03:42:02.360Z,997.75
2023-04-06T03:43:02.383Z,997.85
2023-04-06T03:44:02.357Z,997.84
2023-04-06T03:45:02.346Z,997.84
2023-04-06T03:46:02.405Z,997.84
2023-04-06T03:47:02.316Z,997.85
2023-04-06T03:48:02.393Z,997.83
2023-04-06T03:49:02.312Z,997.81
2023-04-06T03:50:02.297Z,997.85
2023-04-06T03:51:02.292Z,997.84
2023-04-06T03:52:02.303Z,997.83
2023-04-06T03:53:02.311Z,997.83
2023-04-06T03:54:02.270Z,997.90
2023-04-06T03:55:02.265Z,997.80
2023-04-06T03:56:04.624Z,997.88
2023-04-06T03:57:03.249Z,997.90
2023-04-06T03:58:02.280Z,997.91
2023-04-06T03:59:02.278Z,997.85
2023-04-06T04:00:02.241Z,997.88
2023-04-06T04:01:02.214Z,997.89
2023-04-06T04:02:02.332Z,997.91
2023-04-06T04:03:02.289Z,997.94
2023-04-06T04:04:02.217Z,997.92
2023-04-06T04:05:02.245Z,997.94
2023-04-06T04:06:02.187Z,997.85
2023-04-06T04:07:02.173Z,997.85
2023-04-06T04:08:02.229Z,997.90
2023-04-06T04:09:02.157Z,997.93
2023-04-06T04:10:02.154Z,997.92
2023-04-06T04:11:02.154Z,997.95
2023-04-06T04:12:02.142Z,997.93
2023-04-06T04:13:02.155Z,998.01
2023-04-06T04:14:02.129Z,997.92
2023-04-06T04:15:02.125Z,997.96
2023-04-06T04:16:02.131Z,998.00
2023-04-06T04:17:02.115Z,997.95
2023-04-06T04:18:02.181Z,998.03
2023-04-06T04:19:02.089Z,998.00
2023-04-06T04:20:02.090Z,998.05
2023-04-06T04:21:02.078Z,998.05
2023-04-06T04:22:02.061Z,997.98
2023-04-06T04:23:02.083Z,998.07
2023-04-06T04:24:02.051Z,998.14
2023-04-06T04:25:02.054Z,998.10
2023-04-06T04:26:02.036Z,998.03
2023-04-06T04:27:02.080Z,998.04
2023-04-06T04:28:02.073Z,998.06
2023-04-06T04:29:02.022Z,998.09
2023-04-06T04:30:02.009Z,998.09
2023-04-06T04:31:02.010Z,998.03
2023-04-06T04:32:02.023Z,998.08
2023-04-06T04:33:02.025Z,997.99
2023-04-06T04:34:02.000Z,998.03
2023-04-06T04:35:01.981Z,998.03
2023-04-06T04:36:02.020Z,998.08
2023-04-06T04:37:01.976Z,998.08
2023-04-06T04:38:02.006Z,998.04
2023-04-06T04:39:01.948Z,998.05
2023-04-06T04:40:01.951Z,998.09
2023-04-06T04:41:01.940Z,998.06
2023-04-06T04:42:01.947Z,998.03
2023-04-06T04:43:33.873Z,998.10
2023-04-06T04:44:01.924Z,998.06
2023-04-06T04:45:01.911Z,998.14
2023-04-06T04:46:01.973Z,998.04
2023-04-06T04:47:01.892Z,998.11
2023-04-06T04:48:02.037Z,998.07
2023-04-06T04:49:01.898Z,998.07
2023-04-06T04:50:01.901Z,997.99
2023-04-06T04:51:01.882Z,998.10
2023-04-06T04:52:01.867Z,998.08
2023-04-06T04:53:01.932Z,998.09
2023-04-06T04:54:01.867Z,998.07
2023-04-06T04:55:01.840Z,998.14
2023-04-06T04:56:01.831Z,998.08
2023-04-06T04:57:01.829Z,998.07
2023-04-06T04:58:01.851Z,998.11
2023-04-06T04:59:01.878Z,998.13
2023-04-06T05:00:01.816Z,998.09
2023-04-06T05:01:01.863Z,998.13
2023-04-06T05:02:01.916Z,998.12
2023-04-06T05:03:01.875Z,998.14
2023-04-06T05:04:01.777Z,998.15
2023-04-06T05:05:01.805Z,998.18
2023-04-06T05:06:01.764Z,998.13
2023-04-06T05:07:01.762Z,998.25
2023-04-06T05:08:01.780Z,998.22
2023-04-06T05:09:01.740Z,998.29
2023-04-06T05:10:01.737Z,998.19
2023-04-06T05:11:01.730Z,998.28
2023-04-06T05:12:01.728Z,998.21
2023-04-06T05:13:01.774Z,998.25
2023-04-06T05:14:01.889Z,998.27
2023-04-06T05:15:01.702Z,998.22
2023-04-06T05:16:01.765Z,998.24
2023-04-06T05:17:01.703Z,998.26
2023-04-06T05:18:01.762Z,998.26
2023-04-06T05:19:01.678Z,998.15
2023-04-06T05:20:01.685Z,998.21
2023-04-06T05:21:01.670Z,998.27
2023-04-06T05:22:01.699Z,998.22
2023-04-06T05:23:01.674Z,998.16
2023-04-06T05:24:01.688Z,998.22
2023-04-06T05:25:01.632Z,998.23
2023-04-06T05:26:01.627Z,998.20
2023-04-06T05:27:01.609Z,998.18
2023-04-06T05:28:01.642Z,998.17
2023-04-06T05:29:01.612Z,998.22
2023-04-06T05:30:01.605Z,998.15
2023-04-06T05:31:01.622Z,998.16
2023-04-06T05:32:01.586Z,998.28
2023-04-06T05:33:01.680Z,998.17
2023-04-06T05:34:01.580Z,998.19
2023-04-06T05:35:01.564Z,998.20
2023-04-06T05:36:01.653Z,998.14
2023-04-06T05:37:01.539Z,998.17
2023-04-06T05:38:01.627Z,998.14
2023-04-06T05:39:01.549Z,998.13
2023-04-06T05:40:01.531Z,998.15
2023-04-06T05:41:01.507Z,998.18
2023-04-06T05:42:01.509Z,998.24
2023-04-06T05:43:01.526Z,998.21
2023-04-06T05:44:01.488Z,998.09
2023-04-06T05:45:01.486Z,998.16
2023-04-06T05:46:01.535Z,998.20
2023-04-06T05:47:01.500Z,998.23
2023-04-06T05:48:01.515Z,998.19
2023-04-06T05:49:01.518Z,998.19
2023-04-06T05:50:01.448Z,998.20
2023-04-06T05:51:01.424Z,998.22
2023-04-06T05:52:02.492Z,998.21
2023-04-06T05:53:01.416Z,998.18
2023-04-06T05:54:01.433Z,998.17
2023-04-06T05:55:01.433Z,998.25
2023-04-06T05:56:01.384Z,998.20
2023-04-06T05:57:01.431Z,998.24
2023-04-06T05:58:01.397Z,998.21
2023-04-06T05:59:01.509Z,998.26
2023-04-06T06:00:01.354Z,998.25
2023-04-06T06:01:01.366Z,998.23
2023-04-06T06:02:01.370Z,998.28
2023-04-06T06:03:01.527Z,998.28
2023-04-06T06:04:01.357Z,998.22
2023-04-06T06:05:01.385Z,998.15
2023-04-06T06:06:01.324Z,998.24
2023-04-06T06:07:01.305Z,998.22
2023-04-06T06:08:01.299Z,998.24
2023-04-06T06:09:01.328Z,998.17
2023-04-06T06:10:01.298Z,998.21
2023-04-06T06:11:01.271Z,998.17
2023-04-06T06:12:01.263Z,998.19
2023-04-06T06:13:01.262Z,998.21
2023-04-06T06:14:01.301Z,998.22
2023-04-06T06:15:01.251Z,998.17
2023-04-06T06:16:01.248Z,998.19
2023-04-06T06:17:01.228Z,998.21
2023-04-06T06:18:01.381Z,998.11
2023-04-06T06:19:01.302Z,998.15
2023-04-06T06:20:01.232Z,998.13
2023-04-06T06:21:01.206Z,998.18
2023-04-06T06:22:01.199Z,998.07
2023-04-06T06:23:01.217Z,998.10
2023-04-06T06:24:01.207Z,998.11
2023-04-06T06:25:01.167Z,998.13
2023-04-06T06:26:01.156Z,998.06
2023-04-06T06:27:01.187Z,998.16
2023-04-06T06:28:01.143Z,998.12
2023-04-06T06:29:01.254Z,998.16
2023-04-06T06:30:01.131Z,998.16
2023-04-06T06:31:01.136Z,998.16
2023-04-06T06:32:01.287Z,998.15
2023-04-06T06:33:01.178Z,998.19
2023-04-06T06:34:01.162Z,998.05
2023-04-06T06:35:01.199Z,998.16
2023-04-06T06:36:01.140Z,998.11
2023-04-06T06:37:01.090Z,998.13
2023-04-06T06:38:01.090Z,998.17
2023-04-06T06:39:01.091Z,998.18
2023-04-06T06:40:01.052Z,998.13
2023-04-06T06:41:01.080Z,998.14
2023-04-06T06:42:01.039Z,998.12
2023-04-06T06:43:01.041Z,998.03
2023-04-06T06:44:01.278Z,998.04
2023-04-06T06:45:01.009Z,998.10
2023-04-06T06:46:01.034Z,998.10
2023-04-06T06:47:01.013Z,998.08
2023-04-06T06:48:01.050Z,998.09
2023-04-06T06:49:01.014Z,998.07
2023-04-06T06:50:01.026Z,998.10
2023-04-06T06:51:00.992Z,998.12
2023-04-06T06:52:01.003Z,998.13
2023-04-06T06:53:00.967Z,998.13
2023-04-06T06:54:00.979Z,998.10
2023-04-06T06:55:01.063Z,998.09
2023-04-06T06:56:00.958Z,998.12
2023-04-06T06:57:00.928Z,998.12
2023-04-06T06:58:01.209Z,998.10
2023-04-06T06:59:00.962Z,998.11
2023-04-06T07:00:01.023Z,998.10
2023-04-06T07:01:01.071Z,998.13
2023-04-06T07:02:00.916Z,998.16
2023-04-06T07:03:01.016Z,998.15
2023-04-06T07:04:01.000Z,998.14
2023-04-06T07:05:00.941Z,998.14
2023-04-06T07:06:00.882Z,998.14
2023-04-06T07:07:00.883Z,998.11
2023-04-06T07:08:01.018Z,998.11
2023-04-06T07:09:00.860Z,998.08
2023-04-06T07:10:00.868Z,998.06
2023-04-06T07:11:00.834Z,998.13
2023-04-06T07:12:00.893Z,998.10
2023-04-06T07:13:00.821Z,998.10
2023-04-06T07:14:00.808Z,998.13
2023-04-06T07:15:00.825Z,998.11
2023-04-06T07:16:00.820Z,998.10
2023-04-06T07:17:00.842Z,998.09
2023-04-06T07:18:00.816Z,998.07
2023-04-06T07:19:00.986Z,998.02
2023-04-06T07:20:00.789Z,998.08
2023-04-06T07:21:00.816Z,998.07
2023-04-06T07:22:00.741Z,998.10
2023-04-06T07:23:00.828Z,998.02
2023-04-06T07:24:00.744Z,998.04
2023-04-06T07:25:00.767Z,998.06
2023-04-06T07:26:00.731Z,998.07
2023-04-06T07:27:00.753Z,998.02
2023-04-06T07:28:00.704Z,998.00
2023-04-06T07:29:00.680Z,998.01
2023-04-06T07:30:00.841Z,998.01
2023-04-06T07:31:00.672Z,997.98
2023-04-06T07:32:00.675Z,998.01
2023-04-06T07:33:00.748Z,998.01
2023-04-06T07:34:00.658Z,998.01
2023-04-06T07:35:00.721Z,998.04
2023-04-06T07:36:00.685Z,998.07
2023-04-06T07:37:01.801Z,998.02
2023-04-06T07:38:00.616Z,998.04
2023-04-06T07:39:00.618Z,998.05
2023-04-06T07:40:00.647Z,998.04
2023-04-06T07:41:00.601Z,997.96
2023-04-06T07:42:00.617Z,997.93
2023-04-06T07:43:00.587Z,998.01
2023-04-06T07:44:00.678Z,997.97
2023-04-06T07:45:00.604Z,998.01
2023-04-06T07:46:00.608Z,997.93
2023-04-06T07:47:00.549Z,998.02
2023-04-06T07:48:00.605Z,997.95
2023-04-06T07:49:00.541Z,997.87
2023-04-06T07:50:00.563Z,997.88
2023-04-06T07:51:00.525Z,997.92
2023-04-06T07:52:00.575Z,997.91
2023-04-06T07:53:00.508Z,997.79
2023-04-06T07:54:00.503Z,997.80
2023-04-06T07:55:00.522Z,997.83
2023-04-06T07:56:00.488Z,997.89
2023-04-06T07:57:00.478Z,997.86
2023-04-06T07:58:00.490Z,997.83
2023-04-06T07:59:00.505Z,997.76
2023-04-06T08:00:00.506Z,997.83
2023-04-06T08:01:00.451Z,997.84
2023-04-06T08:02:00.467Z,997.86
2023-04-06T08:03:00.524Z,997.86
2023-04-06T08:04:00.598Z,997.87
2023-04-06T08:05:21.120Z,997.90
2023-04-06T08:06:01.417Z,997.81
2023-04-06T08:07:00.434Z,997.86
2023-04-06T08:08:00.410Z,997.81
2023-04-06T08:09:00.396Z,997.86
2023-04-06T08:10:00.428Z,997.90
2023-04-06T08:11:02.009Z,997.88
2023-04-06T08:12:01.471Z,997.84
2023-04-06T08:13:00.372Z,997.90
2023-04-06T08:14:00.356Z,997.87
2023-04-06T08:15:00.379Z,997.80
2023-04-06T08:16:00.370Z,997.87
2023-04-06T08:17:00.326Z,997.91
2023-04-06T08:18:00.357Z,997.86
2023-04-06T08:19:00.317Z,997.87
2023-04-06T08:20:00.326Z,997.88
2023-04-06T08:21:00.353Z,997.86
2023-04-06T08:22:00.297Z,997.80
2023-04-06T08:23:00.276Z,997.81
2023-04-06T08:24:00.270Z,997.81
2023-04-06T08:25:00.288Z,997.85
2023-04-06T08:26:00.257Z,997.81
2023-04-06T08:27:00.240Z,997.76
2023-04-06T08:28:00.322Z,997.80
2023-04-06T08:29:00.276Z,997.78
2023-04-06T08:30:00.275Z,997.79
2023-04-06T08:31:00.239Z,997.77
2023-04-06T08:32:00.212Z,997.80
2023-04-06T08:33:00.329Z,997.74
2023-04-06T08:34:00.198Z,997.71
2023-04-06T08:35:00.215Z,997.73
2023-04-06T08:36:00.200Z,997.65
2023-04-06T08:37:00.170Z,997.64
2023-04-06T08:38:00.278Z,997.53
2023-04-06T08:39:00.168Z,997.63
2023-04-06T08:40:00.209Z,997.61
2023-04-06T08:41:00.169Z,997.60
2023-04-06T08:42:00.144Z,997.61
2023-04-06T08:43:00.182Z,997.61
2023-04-06T08:44:00.116Z,997.57
2023-04-06T08:45:00.182Z,997.59
2023-04-06T08:46:00.164Z,997.58
2023-04-06T08:47:00.116Z,997.58
2023-04-06T08:48:00.258Z,997.64
2023-04-06T08:49:00.097Z,997.65
2023-04-06T08:50:00.195Z,997.59
2023-04-06T08:51:00.090Z,997.59
2023-04-06T08:52:00.123Z,997.51
2023-04-06T08:53:00.068Z,997.56
2023-04-06T08:54:00.102Z,997.53
2023-04-06T08:55:00.062Z,997.58
2023-04-06T08:56:00.715Z,997.60
2023-04-06T08:57:00.024Z,997.51
2023-04-06T08:58:00.019Z,997.59
2023-04-06T08:59:00.063Z,997.58
2023-04-06T08:59:59.998Z,997.51
2023-04-06T09:01:00.025Z,997.56
2023-04-06T09:02:00.003Z,997.58
2023-04-06T09:03:00.147Z,997.47
2023-04-06T09:04:00.093Z,997.51
2023-04-06T09:05:00.020Z,997.53
2023-04-06T09:06:00.030Z,997.51
2023-04-06T09:06:59.973Z,997.55
2023-04-06T09:08:00.934Z,997.59
2023-04-06T09:08:59.931Z,997.55
2023-04-06T09:09:59.929Z,997.57
2023-04-06T09:10:59.941Z,997.54
2023-04-06T09:11:59.904Z,997.55
2023-04-06T09:12:59.903Z,997.60
2023-04-06T09:13:59.900Z,997.57
2023-04-06T09:14:59.917Z,997.54
2023-04-06T09:15:59.952Z,997.54
2023-04-06T09:16:59.880Z,997.56
2023-04-06T09:17:59.942Z,997.57
2023-04-06T09:18:59.851Z,997.52
2023-04-06T09:19:59.909Z,997.59
2023-04-06T09:20:59.866Z,997.58
2023-04-06T09:21:59.832Z,997.51
2023-04-06T09:22:59.863Z,997.46
2023-04-06T09:23:59.988Z,997.46
2023-04-06T09:24:59.812Z,997.55
2023-04-06T09:25:59.837Z,997.55
2023-04-06T09:26:59.835Z,997.50
2023-04-06T09:27:59.787Z,997.46
2023-04-06T09:28:59.772Z,997.49
2023-04-06T09:30:00.771Z,997.36
2023-04-06T09:30:59.802Z,997.38
2023-04-06T09:31:59.868Z,997.34
2023-04-06T09:32:59.818Z,997.33
2023-04-06T09:33:59.768Z,997.32
2023-04-06T09:34:59.740Z,997.27
2023-04-06T09:35:59.804Z,997.34
2023-04-06T09:36:59.725Z,997.28
2023-04-06T09:37:59.727Z,997.29
2023-04-06T09:38:59.702Z,997.19
2023-04-06T09:39:59.707Z,997.25
2023-04-06T09:41:01.226Z,997.27
2023-04-06T09:42:00.757Z,997.24
2023-04-06T09:42:59.719Z,997.22
2023-04-06T09:43:59.664Z,997.29
2023-04-06T09:44:59.666Z,997.25
2023-04-06T09:45:59.720Z,997.18
2023-04-06T09:47:01.146Z,997.19
2023-04-06T09:48:00.772Z,997.17
2023-04-06T09:48:59.629Z,997.20
2023-04-06T09:49:59.634Z,997.26
2023-04-06T09:50:59.639Z,997.21
2023-04-06T09:51:59.619Z,997.24
2023-04-06T09:52:59.602Z,997.25
2023-04-06T09:53:59.597Z,997.25
2023-04-06T09:54:59.581Z,997.14
2023-04-06T09:55:59.601Z,997.12
2023-04-06T09:56:59.620Z,997.09
2023-04-06T09:57:59.597Z,997.12
2023-04-06T09:58:59.584Z,997.11
2023-04-06T09:59:59.546Z,997.14
2023-04-06T10:00:59.697Z,997.08
2023-04-06T10:01:59.527Z,997.05
2023-04-06T10:02:59.573Z,997.05
2023-04-06T10:03:59.718Z,997.00
2023-04-06T10:04:59.514Z,997.00
2023-04-06T10:05:59.607Z,997.04
2023-04-06T10:06:59.492Z,996.95
2023-04-06T10:08:01.129Z,996.99
2023-04-06T10:09:00.485Z,996.98
2023-04-06T10:09:59.503Z,996.97
2023-04-06T10:10:59.484Z,996.97
2023-04-06T10:11:59.447Z,996.99
2023-04-06T10:12:59.434Z,997.00
2023-04-06T10:14:00.442Z,997.05
2023-04-06T10:14:59.419Z,996.94
2023-04-06T10:15:59.503Z,996.95
2023-04-06T10:16:59.410Z,997.00
2023-04-06T10:17:59.420Z,996.97
2023-04-06T10:18:59.385Z,996.91
2023-04-06T10:19:59.384Z,996.91
2023-04-06T10:20:59.377Z,996.96
2023-04-06T10:21:59.399Z,996.91
2023-04-06T10:22:59.360Z,996.92
2023-04-06T10:23:59.354Z,996.94
2023-04-06T10:24:59.351Z,996.89
2023-04-06T10:25:59.333Z,996.89
2023-04-06T10:26:59.348Z,996.92
2023-04-06T10:27:59.323Z,996.90
2023-04-06T10:28:59.329Z,996.93
2023-04-06T10:29:59.314Z,996.88
2023-04-06T10:30:59.321Z,996.93
2023-04-06T10:31:59.376Z,996.86
2023-04-06T10:32:59.476Z,996.91
2023-04-06T10:33:59.280Z,996.95
2023-04-06T10:34:59.282Z,996.92
2023-04-06T10:35:59.334Z,996.99
2023-04-06T10:36:59.286Z,996.91
2023-04-06T10:37:59.245Z,996.93
2023-04-06T10:38:59.373Z,996.90
2023-04-06T10:39:59.276Z,996.95
2023-04-06T10:40:59.229Z,996.93
2023-04-06T10:41:59.259Z,996.85
2023-04-06T10:43:31.678Z,996.89
2023-04-06T10:43:59.209Z,996.85
2023-04-06T10:44:59.197Z,996.87
2023-04-06T10:45:59.270Z,996.87
2023-04-06T10:46:59.302Z,996.87
2023-04-06T10:47:59.250Z,996.86
2023-04-06T10:48:59.170Z,996.89
2023-04-06T10:49:59.160Z,996.89
2023-04-06T10:50:59.155Z,996.77
2023-04-06T10:51:59.341Z,996.83
2023-04-06T10:52:59.135Z,996.79
2023-04-06T10:53:59.125Z,996.88
2023-04-06T10:54:59.142Z,996.78
2023-04-06T10:55:59.117Z,996.81
2023-04-06T10:56:59.132Z,996.81
2023-04-06T10:57:59.099Z,996.86
2023-04-06T10:58:59.125Z,996.77
2023-04-06T10:59:59.088Z,996.86
2023-04-06T11:00:59.108Z,996.77
2023-04-06T11:01:59.094Z,996.75
2023-04-06T11:02:59.083Z,996.74
2023-04-06T11:03:59.148Z,996.87
2023-04-06T11:04:59.061Z,996.82
2023-04-06T11:05:59.027Z,996.82
2023-04-06T11:06:59.063Z,996.76
2023-04-06T11:07:59.024Z,996.82
2023-04-06T11:08:59.005Z,996.79
2023-04-06T11:10:14.007Z,996.86
2023-04-06T11:11:01.014Z,996.81
2023-04-06T11:11:59.055Z,996.80
2023-04-06T11:12:58.980Z,996.78
2023-04-06T11:13:58.966Z,996.67
2023-04-06T11:14:58.966Z,996.62
2023-04-06T11:15:58.951Z,996.61
2023-04-06T11:16:59.057Z,996.69
2023-04-06T11:17:59.014Z,996.71
2023-04-06T11:18:58.939Z,996.67
2023-04-06T11:19:58.923Z,996.69
2023-04-06T11:20:58.918Z,996.64
2023-04-06T11:21:59.928Z,996.61
2023-04-06T11:22:59.910Z,996.68
2023-04-06T11:23:58.898Z,996.61
2023-04-06T11:24:58.886Z,996.63
2023-04-06T11:25:58.885Z,996.60
2023-04-06T11:26:58.933Z,996.68
2023-04-06T11:27:58.885Z,996.61
2023-04-06T11:28:58.856Z,996.63
2023-04-06T11:29:58.864Z,996.61
2023-04-06T11:30:59.979Z,996.55
2023-04-06T11:31:58.837Z,996.57
2023-04-06T11:32:58.874Z,996.57
2023-04-06T11:33:58.821Z,996.56
2023-04-06T11:34:58.805Z,996.54
2023-04-06T11:35:58.873Z,996.47
2023-04-06T11:36:58.799Z,996.48
2023-04-06T11:38:00.456Z,996.51
2023-04-06T11:38:59.783Z,996.51
2023-04-06T11:39:58.798Z,996.49
2023-04-06T11:40:58.756Z,996.48
2023-04-06T11:41:58.751Z,996.46
2023-04-06T11:42:58.775Z,996.42
2023-04-06T11:43:58.741Z,996.43
2023-04-06T11:44:58.733Z,996.56
2023-04-06T11:45:58.729Z,996.45
2023-04-06T11:46:58.710Z,996.32
2023-04-06T11:47:58.769Z,996.34
2023-04-06T11:48:58.771Z,996.37
2023-04-06T11:49:58.693Z,996.36
2023-04-06T11:50:58.690Z,996.24
2023-04-06T11:51:58.717Z,996.27
2023-04-06T11:52:58.688Z,996.34
2023-04-06T11:53:59.730Z,996.32
2023-04-06T11:54:58.666Z,996.38
2023-04-06T11:55:58.673Z,996.41
2023-04-06T11:56:58.673Z,996.34
2023-04-06T11:57:58.636Z,996.24
2023-04-06T11:58:58.732Z,996.25
2023-04-06T11:59:58.619Z,996.34
2023-04-06T12:00:58.608Z,996.33
2023-04-06T12:01:58.611Z,996.35
2023-04-06T12:02:58.660Z,996.32
2023-04-06T12:03:58.668Z,996.22
2023-04-06T12:04:58.592Z,996.27
2023-04-06T12:05:59.437Z,996.13
2023-04-06T12:06:59.558Z,996.15
2023-04-06T12:08:00.126Z,996.16
2023-04-06T12:08:58.616Z,996.16
2023-04-06T12:09:58.537Z,996.26
2023-04-06T12:10:58.534Z,996.24
2023-04-06T12:11:58.512Z,996.23
2023-04-06T12:12:58.508Z,996.14
2023-04-06T12:13:58.533Z,996.23
2023-04-06T12:14:58.491Z,996.13
2023-04-06T12:15:58.543Z,996.22
2023-04-06T12:16:58.484Z,996.21
2023-04-06T12:17:58.496Z,996.21
2023-04-06T12:18:58.554Z,996.25
2023-04-06T12:20:05.149Z,996.17
2023-04-06T12:21:00.445Z,996.25
2023-04-06T12:21:58.453Z,996.11
2023-04-06T12:22:58.565Z,996.15
2023-04-06T12:23:58.453Z,996.12
2023-04-06T12:24:58.422Z,996.08
2023-04-06T12:25:58.409Z,996.04
2023-04-06T12:27:08.698Z,996.07
2023-04-06T12:28:00.400Z,996.04